createdAt,value
2017-08-19T00:02:06.027Z,68.00
2017-08-19T00:04:34.725Z,65.50
2017-08-19T00:07:03.651Z,65.80
2017-08-19T00:09:32.264Z,66.70
2017-08-19T00:12:01.690Z,66.20
2017-08-19T00:14:30.355Z,65.30
2017-08-19T00:16:59.214Z,66.00
2017-08-19T00:19:27.984Z,65.10
2017-08-19T00:21:56.936Z,64.40
2017-08-19T00:24:25.443Z,66.00
2017-08-19T00:26:54.042Z,67.40
2017-08-19T00:29:22.833Z,63.90
2017-08-19T00:31:51.890Z,66.40
2017-08-19T00:34:20.728Z,66.40
2017-08-19T00:36:49.660Z,65.10
2017-08-19T00:39:18.427Z,66.70
2017-08-19T00:41:47.578Z,66.70
2017-08-19T00:44:16.439Z,66.20
2017-08-19T00:46:45.496Z,67.60
2017-08-19T00:49:14.523Z,67.10
2017-08-19T00:51:43.174Z,68.30
2017-08-19T00:54:11.867Z,69.20
2017-08-19T00:56:40.813Z,68.00
2017-08-19T00:59:09.600Z,65.30
2017-08-19T01:01:38.210Z,66.20
2017-08-19T01:04:06.899Z,66.90
2017-08-19T01:06:35.872Z,65.80
2017-08-19T01:09:04.599Z,66.70
2017-08-19T01:11:33.451Z,66.90
2017-08-19T01:14:02.321Z,67.10
2017-08-19T01:16:31.422Z,67.60
2017-08-19T01:19:00.292Z,67.80
2017-08-19T01:21:29.164Z,69.20
2017-08-19T01:23:58.807Z,68.90
2017-08-19T01:26:39.431Z,69.10
2017-08-19T01:29:08.003Z,72.50
2017-08-19T01:31:36.762Z,69.80
2017-08-19T01:34:05.440Z,69.80
2017-08-19T01:36:34.870Z,69.40
2017-08-19T01:39:03.603Z,68.90
2017-08-19T01:41:32.737Z,70.50
2017-08-19T01:44:01.801Z,70.70
2017-08-19T01:46:30.696Z,69.20
2017-08-19T01:48:59.791Z,70.90
2017-08-19T01:51:28.518Z,70.30
2017-08-19T01:53:57.544Z,69.40
2017-08-19T01:56:26.293Z,69.20
2017-08-19T01:58:55.253Z,71.60
2017-08-19T02:01:24.088Z,69.80
2017-08-19T02:03:52.969Z,69.40
2017-08-19T02:06:21.522Z,69.60
2017-08-19T02:08:50.252Z,68.50
2017-08-19T02:11:18.822Z,66.00
2017-08-19T02:13:47.850Z,66.70
2017-08-19T02:16:16.507Z,67.40
2017-08-19T02:18:45.272Z,65.80
2017-08-19T02:21:13.779Z,66.40
2017-08-19T02:23:42.639Z,68.00
2017-08-19T02:26:11.480Z,67.40
2017-08-19T02:28:39.763Z,65.80
2017-08-19T02:31:08.235Z,66.60
2017-08-19T02:33:36.969Z,63.90
2017-08-19T02:36:05.865Z,64.90
2017-08-19T02:38:34.745Z,65.80
2017-08-19T02:41:03.664Z,64.20
2017-08-19T02:43:32.364Z,64.90
2017-08-19T02:46:01.213Z,67.30
2017-08-19T02:48:30.329Z,68.90
2017-08-19T02:50:59.207Z,69.80
2017-08-19T02:53:28.116Z,68.50
2017-08-19T02:55:56.607Z,70.10
2017-08-19T02:58:25.480Z,73.60
2017-08-19T03:00:54.155Z,71.20
2017-08-19T03:03:23.130Z,70.00
2017-08-19T03:05:51.959Z,67.10
2017-08-19T03:08:20.599Z,68.20
2017-08-19T03:10:49.371Z,68.20
2017-08-19T03:13:17.773Z,70.50
2017-08-19T03:15:46.366Z,73.00
2017-08-19T03:18:15.736Z,73.20
2017-08-19T03:20:44.694Z,70.30
2017-08-19T03:23:13.299Z,70.30
2017-08-19T03:25:41.877Z,69.10
2017-08-19T03:28:10.794Z,69.60
2017-08-19T03:30:39.471Z,70.10
2017-08-19T03:33:08.257Z,68.90
2017-08-19T03:35:36.998Z,69.20
2017-08-19T03:38:05.693Z,68.90
2017-08-19T03:40:34.609Z,69.40
2017-08-19T03:43:03.532Z,68.00
2017-08-19T03:45:32.228Z,68.00
2017-08-19T03:48:01.185Z,69.20
2017-08-19T03:50:30.194Z,70.30
2017-08-19T03:52:59.558Z,70.30
2017-08-19T03:55:28.009Z,70.10
2017-08-19T03:57:56.432Z,72.30
2017-08-19T04:00:25.132Z,68.30
2017-08-19T04:02:54.335Z,69.40
2017-08-19T04:05:23.454Z,67.10
2017-08-19T04:07:52.372Z,66.90
2017-08-19T04:10:21.050Z,69.60
2017-08-19T04:12:49.965Z,66.00
2017-08-19T04:15:18.783Z,67.40
2017-08-19T04:17:47.517Z,66.40
2017-08-19T04:20:16.312Z,63.70
2017-08-19T04:22:45.129Z,65.70
2017-08-19T04:25:13.715Z,65.30
2017-08-19T04:27:42.614Z,64.00
2017-08-19T04:30:11.594Z,64.60
2017-08-19T04:32:40.290Z,64.90
2017-08-19T04:35:09.112Z,63.00
2017-08-19T04:37:37.864Z,64.80
2017-08-19T04:40:07.143Z,65.30
2017-08-19T04:42:36.072Z,65.80
2017-08-19T04:45:04.673Z,63.00
2017-08-19T04:47:33.790Z,63.00
2017-08-19T04:50:02.539Z,62.40
2017-08-19T04:52:31.600Z,63.90
2017-08-19T04:55:00.377Z,63.90
2017-08-19T04:57:29.068Z,63.90
2017-08-19T04:59:57.667Z,62.60
2017-08-19T05:02:26.418Z,64.80
2017-08-19T05:04:55.118Z,61.20
2017-08-19T05:07:23.642Z,64.00
2017-08-19T05:09:52.633Z,62.40
2017-08-19T05:12:21.587Z,63.10
2017-08-19T05:14:50.572Z,61.20
2017-08-19T05:17:19.381Z,60.40
2017-08-19T05:19:48.277Z,61.90
2017-08-19T05:22:16.964Z,58.90
2017-08-19T05:24:45.709Z,56.70
2017-08-19T05:27:14.439Z,59.20
2017-08-19T05:29:43.265Z,58.80
2017-08-19T05:32:12.076Z,58.00
2017-08-19T05:34:40.941Z,58.60
2017-08-19T05:37:09.506Z,58.30
2017-08-19T05:39:38.293Z,60.10
2017-08-19T05:42:07.039Z,58.60
2017-08-19T05:44:36.162Z,59.20
2017-08-19T05:47:04.914Z,57.90
2017-08-19T05:49:33.435Z,60.40
2017-08-19T05:52:02.969Z,61.00
2017-08-19T05:54:31.885Z,61.50
2017-08-19T05:57:00.718Z,62.10
2017-08-19T05:59:29.378Z,58.90
2017-08-19T06:01:58.143Z,60.40
2017-08-19T06:04:26.990Z,60.00
2017-08-19T06:06:55.784Z,59.10
2017-08-19T06:09:24.760Z,57.70
2017-08-19T06:11:53.503Z,59.50
2017-08-19T06:14:22.324Z,58.20
2017-08-19T06:16:51.162Z,56.70
2017-08-19T06:19:19.864Z,56.60
2017-08-19T06:21:49.269Z,58.90
2017-08-19T06:24:18.410Z,58.00
2017-08-19T06:26:47.009Z,57.30
2017-08-19T06:29:15.868Z,58.90
2017-08-19T06:31:44.934Z,61.20
2017-08-19T06:34:14.660Z,58.60
2017-08-19T06:36:43.619Z,56.60
2017-08-19T06:39:12.629Z,58.80
2017-08-19T06:41:41.322Z,58.30
2017-08-19T06:44:10.395Z,57.40
2017-08-19T06:46:39.128Z,59.10
2017-08-19T06:49:08.028Z,59.20
2017-08-19T06:51:36.843Z,58.20
2017-08-19T06:54:06.038Z,57.30
2017-08-19T06:56:34.899Z,56.30
2017-08-19T06:59:03.336Z,56.30
2017-08-19T07:01:32.148Z,56.70
2017-08-19T07:04:00.809Z,56.60
2017-08-19T07:06:29.430Z,55.80
2017-08-19T07:08:58.461Z,55.80
2017-08-19T07:11:27.234Z,56.60
2017-08-19T07:13:56.292Z,54.60
2017-08-19T07:16:25.579Z,53.80
2017-08-19T07:18:54.320Z,53.60
2017-08-19T07:21:23.255Z,53.20
2017-08-19T07:23:52.115Z,51.80
2017-08-19T07:26:20.911Z,53.00
2017-08-19T07:28:49.593Z,52.10
2017-08-19T07:31:19.001Z,52.90
2017-08-19T07:33:47.765Z,53.20
2017-08-19T07:36:16.728Z,52.10
2017-08-19T07:38:45.908Z,50.70
2017-08-19T07:41:15.064Z,52.00
2017-08-19T07:43:44.044Z,53.60
2017-08-19T07:46:12.746Z,53.30
2017-08-19T07:48:41.894Z,52.60
2017-08-19T07:51:11.042Z,51.70
2017-08-19T07:53:39.753Z,50.90
2017-08-19T07:56:08.862Z,50.80
2017-08-19T07:58:37.785Z,50.40
2017-08-19T08:01:07.414Z,49.20
2017-08-19T08:03:36.602Z,48.00
2017-08-19T08:06:05.334Z,47.50
2017-08-19T08:08:34.483Z,47.10
2017-08-19T08:11:03.068Z,46.20
2017-08-19T08:13:31.769Z,44.90
2017-08-19T08:16:00.612Z,44.40
2017-08-19T08:18:29.308Z,44.70
2017-08-19T08:20:57.996Z,44.40
2017-08-19T08:23:26.631Z,43.90
2017-08-19T08:25:56.430Z,43.70
2017-08-19T08:28:25.304Z,44.30
2017-08-19T08:30:54.265Z,47.50
2017-08-19T08:33:23.391Z,48.30
2017-08-19T08:35:52.406Z,48.40
2017-08-19T08:38:21.262Z,47.10
2017-08-19T08:40:51.490Z,43.60
2017-08-19T08:43:20.805Z,42.20
2017-08-19T08:45:49.665Z,40.50
2017-08-19T08:48:18.486Z,43.00
2017-08-19T08:50:47.058Z,43.00
2017-08-19T08:53:16.943Z,42.20
2017-08-19T08:55:45.871Z,40.00
2017-08-19T08:58:14.973Z,40.70
2017-08-19T09:00:43.714Z,40.20
2017-08-19T09:03:12.534Z,40.20
2017-08-19T09:05:41.883Z,42.20
2017-08-19T09:08:10.607Z,41.30
2017-08-19T09:10:39.399Z,38.70
2017-08-19T09:13:08.215Z,36.20
2017-08-19T09:15:37.055Z,37.90
2017-08-19T09:18:05.835Z,37.60
2017-08-19T09:20:34.708Z,36.30
2017-08-19T09:23:03.362Z,36.00
2017-08-19T09:25:32.029Z,37.60
2017-08-19T09:28:00.753Z,36.90
2017-08-19T09:30:29.201Z,36.20
2017-08-19T09:32:57.942Z,37.90
2017-08-19T09:35:26.777Z,36.80
2017-08-19T09:37:55.611Z,35.90
2017-08-19T09:40:24.119Z,34.80
2017-08-19T09:42:52.877Z,37.10
2017-08-19T09:45:22.185Z,37.20
2017-08-19T09:47:50.956Z,37.90
2017-08-19T09:50:19.991Z,39.00
2017-08-19T09:52:48.806Z,39.70
2017-08-19T09:55:17.479Z,39.90
2017-08-19T09:57:48.051Z,42.10
2017-08-19T10:00:16.914Z,43.40
2017-08-19T10:02:45.659Z,43.70
2017-08-19T10:05:14.637Z,42.40
2017-08-19T10:07:43.357Z,41.00
2017-08-19T10:10:23.718Z,41.00
2017-08-19T10:12:52.996Z,42.40
2017-08-19T10:15:21.832Z,43.00
2017-08-19T10:17:50.551Z,46.20
2017-08-19T10:20:19.339Z,46.80
2017-08-19T10:22:48.247Z,47.50
2017-08-19T10:25:17.349Z,46.50
2017-08-19T10:27:46.495Z,48.00
2017-08-19T10:30:15.309Z,47.80
2017-08-19T10:32:44.046Z,48.30
2017-08-19T10:35:13.034Z,46.20
2017-08-19T10:37:42.860Z,45.30
2017-08-19T10:40:11.417Z,44.60
2017-08-19T10:42:42.380Z,42.40
2017-08-19T10:45:11.078Z,41.30
2017-08-19T10:47:39.700Z,40.60
2017-08-19T10:50:08.536Z,37.60
2017-08-19T10:52:37.716Z,38.10
2017-08-19T10:55:06.771Z,39.60
2017-08-19T10:57:35.469Z,35.70
2017-08-19T11:00:04.573Z,35.40
2017-08-19T11:02:33.528Z,36.30
2017-08-19T11:05:02.741Z,38.50
2017-08-19T11:07:31.874Z,40.70
2017-08-19T11:10:01.316Z,40.60
2017-08-19T11:12:30.011Z,39.70
2017-08-19T11:14:59.016Z,39.60
2017-08-19T11:17:28.195Z,43.70
2017-08-19T11:19:57.096Z,44.60
2017-08-19T11:22:26.050Z,42.20
2017-08-19T11:24:54.968Z,42.40
2017-08-19T11:27:24.054Z,39.40
2017-08-19T11:29:52.866Z,37.20
2017-08-19T11:32:21.586Z,34.70
2017-08-19T11:34:50.429Z,33.20
2017-08-19T11:37:19.257Z,35.00
2017-08-19T11:39:47.966Z,36.50
2017-08-19T11:42:16.449Z,35.70
2017-08-19T11:44:45.318Z,37.10
2017-08-19T11:47:14.026Z,36.60
2017-08-19T11:49:43.148Z,39.70
2017-08-19T11:52:12.075Z,41.00
2017-08-19T11:54:40.906Z,46.20
2017-08-19T11:57:09.846Z,48.90
2017-08-19T11:59:38.719Z,48.70
2017-08-19T12:02:07.251Z,48.10
2017-08-19T12:04:36.109Z,47.00
2017-08-19T12:07:04.959Z,44.70
2017-08-19T12:09:33.898Z,44.30
2017-08-19T12:12:02.778Z,44.30
2017-08-19T12:14:31.874Z,44.00
2017-08-19T12:17:00.594Z,45.30
2017-08-19T12:19:29.564Z,47.00
2017-08-19T12:21:58.332Z,46.20
2017-08-19T12:24:27.308Z,43.00
2017-08-19T12:26:56.335Z,44.90
2017-08-19T12:29:25.734Z,43.90
2017-08-19T12:31:54.638Z,42.10
2017-08-19T12:34:23.584Z,42.40
2017-08-19T12:36:52.324Z,35.90
2017-08-19T12:39:21.365Z,35.70
2017-08-19T12:41:50.414Z,33.80
2017-08-19T12:44:19.289Z,34.00
2017-08-19T12:46:48.136Z,34.10
2017-08-19T12:49:16.996Z,33.10
2017-08-19T12:51:45.914Z,32.80
2017-08-19T12:54:14.751Z,31.70
2017-08-19T12:56:43.629Z,32.50
2017-08-19T12:59:12.749Z,31.40
2017-08-19T13:01:41.965Z,30.40
2017-08-19T13:04:11.220Z,31.30
2017-08-19T13:06:40.171Z,31.30
2017-08-19T13:09:09.054Z,31.90
2017-08-19T13:11:37.778Z,32.00
2017-08-19T13:14:06.540Z,31.60
2017-08-19T13:16:35.839Z,32.30
2017-08-19T13:19:04.584Z,32.30
2017-08-19T13:21:33.595Z,33.40
2017-08-19T13:24:02.267Z,33.80
2017-08-19T13:26:31.116Z,30.80
2017-08-19T13:29:00.144Z,33.40
2017-08-19T13:31:28.991Z,31.70
2017-08-19T13:33:57.848Z,31.00
2017-08-19T13:36:26.759Z,29.70
2017-08-19T13:38:55.611Z,29.60
2017-08-19T13:41:25.264Z,29.40
2017-08-19T13:43:56.480Z,29.80
2017-08-19T13:46:25.643Z,28.90
2017-08-19T13:48:55.440Z,30.30
2017-08-19T13:51:24.144Z,30.30
2017-08-19T13:53:53.065Z,29.90
2017-08-19T13:56:21.818Z,30.70
2017-08-19T13:58:50.462Z,32.20
2017-08-19T14:01:19.734Z,32.60
2017-08-19T14:03:48.538Z,31.90
2017-08-19T14:06:17.321Z,32.00
2017-08-19T14:08:46.254Z,32.80
2017-08-19T14:11:15.317Z,32.60
2017-08-19T14:13:43.949Z,31.00
2017-08-19T14:16:13.692Z,30.30
2017-08-19T14:18:42.368Z,31.60
2017-08-19T14:21:11.167Z,32.00
2017-08-19T14:23:40.939Z,31.40
2017-08-19T14:26:09.667Z,32.30
2017-08-19T14:28:38.499Z,33.50
2017-08-19T14:31:07.010Z,32.90
2017-08-19T14:33:35.765Z,34.10
2017-08-19T14:36:04.740Z,34.40
2017-08-19T14:38:33.711Z,34.40
2017-08-19T14:41:02.480Z,35.00
2017-08-19T14:43:31.581Z,35.70
2017-08-19T14:46:00.424Z,36.20
2017-08-19T14:48:29.497Z,36.30
2017-08-19T14:50:58.124Z,36.90
2017-08-19T14:53:27.031Z,36.20
2017-08-19T14:55:56.558Z,33.80
2017-08-19T14:58:25.597Z,34.00
2017-08-19T15:00:54.785Z,34.70
2017-08-19T15:03:24.394Z,35.10
2017-08-19T15:05:53.259Z,35.40
2017-08-19T15:08:22.077Z,36.30
2017-08-19T15:10:51.025Z,35.70
2017-08-19T15:13:19.881Z,35.40
2017-08-19T15:15:49.606Z,34.80
2017-08-19T15:18:18.267Z,35.10
2017-08-19T15:20:47.596Z,34.50
2017-08-19T15:23:16.195Z,34.40
2017-08-19T15:25:45.091Z,35.00
2017-08-19T15:28:13.634Z,36.80
2017-08-19T15:30:42.773Z,36.90
2017-08-19T15:33:11.833Z,36.80
2017-08-19T15:35:40.529Z,36.90
2017-08-19T15:38:09.233Z,37.80
2017-08-19T15:40:38.045Z,37.90
2017-08-19T15:43:06.965Z,38.20
2017-08-19T15:45:35.795Z,38.20
2017-08-19T15:48:04.932Z,38.10
2017-08-19T15:50:33.695Z,37.90
2017-08-19T15:53:02.413Z,39.00
2017-08-19T15:55:31.349Z,40.20
2017-08-19T15:58:00.075Z,39.90
2017-08-19T16:00:29.478Z,40.50
2017-08-19T16:02:58.255Z,40.60
2017-08-19T16:05:26.765Z,39.70
2017-08-19T16:07:55.694Z,39.60
2017-08-19T16:10:24.947Z,38.40
2017-08-19T16:12:54.021Z,39.10
2017-08-19T16:15:22.812Z,39.60
2017-08-19T16:17:51.800Z,40.70
2017-08-19T16:20:20.397Z,41.30
2017-08-19T16:22:49.191Z,41.50
2017-08-19T16:25:18.525Z,41.50
2017-08-19T16:27:47.318Z,40.90
2017-08-19T16:30:16.086Z,41.00
2017-08-19T16:32:45.874Z,39.60
2017-08-19T16:35:15.330Z,39.70
2017-08-19T16:37:44.174Z,39.10
2017-08-19T16:40:13.108Z,39.40
2017-08-19T16:42:41.660Z,38.80
2017-08-19T16:45:10.367Z,39.60
2017-08-19T16:47:39.247Z,39.70
2017-08-19T16:50:08.120Z,40.70
2017-08-19T16:52:36.769Z,41.00
2017-08-19T16:55:06.005Z,41.30
2017-08-19T16:57:35.001Z,41.50
2017-08-19T17:00:03.738Z,41.90
2017-08-19T17:02:32.849Z,42.10
2017-08-19T17:05:01.321Z,42.50
2017-08-19T17:07:30.305Z,42.80
2017-08-19T17:09:59.423Z,42.80
2017-08-19T17:12:28.180Z,42.70
2017-08-19T17:14:56.823Z,43.00
2017-08-19T17:17:25.591Z,43.10
2017-08-19T17:19:54.524Z,43.30
2017-08-19T17:22:23.623Z,43.10
2017-08-19T17:24:52.545Z,43.10
2017-08-19T17:27:21.598Z,43.30
2017-08-19T17:29:50.600Z,43.10
2017-08-19T17:32:19.386Z,43.10
2017-08-19T17:34:48.215Z,43.00
2017-08-19T17:37:17.150Z,43.60
2017-08-19T17:39:45.914Z,44.30
2017-08-19T17:42:14.835Z,44.70
2017-08-19T17:44:44.102Z,45.00
2017-08-19T17:47:12.896Z,45.30
2017-08-19T17:49:41.640Z,45.00
2017-08-19T17:52:10.488Z,45.30
2017-08-19T17:54:39.083Z,45.30
2017-08-19T17:57:07.937Z,45.60
2017-08-19T17:59:36.725Z,45.90
2017-08-19T18:02:05.443Z,46.20
2017-08-19T18:04:34.252Z,46.70
2017-08-19T18:07:02.930Z,47.30
2017-08-19T18:09:31.794Z,47.40
2017-08-19T18:12:00.735Z,47.80
2017-08-19T18:14:29.445Z,47.40
2017-08-19T18:16:58.035Z,47.40
2017-08-19T18:19:26.432Z,47.70
2017-08-19T18:21:54.687Z,47.80
2017-08-19T18:24:23.291Z,47.80
2017-08-19T18:26:52.069Z,48.40
2017-08-19T18:29:20.740Z,48.40
2017-08-19T18:31:49.669Z,48.70
2017-08-19T18:34:18.537Z,48.90
2017-08-19T18:36:47.109Z,49.00
2017-08-19T18:39:15.932Z,49.30
2017-08-19T18:41:44.700Z,49.80
2017-08-19T18:44:13.549Z,50.10
2017-08-19T18:46:42.752Z,49.90
2017-08-19T18:49:11.701Z,49.90
2017-08-19T18:51:40.537Z,50.20
2017-08-19T18:54:09.312Z,50.20
2017-08-19T18:56:37.972Z,50.80
2017-08-19T18:59:06.838Z,50.50
2017-08-19T19:01:35.722Z,50.80
2017-08-19T19:04:04.792Z,51.10
2017-08-19T19:06:33.829Z,51.10
2017-08-19T19:09:03.147Z,50.90
2017-08-19T19:11:31.668Z,51.10
2017-08-19T19:14:00.494Z,51.10
2017-08-19T19:16:29.242Z,51.50
2017-08-19T19:18:59.008Z,51.50
2017-08-19T19:21:27.933Z,51.50
2017-08-19T19:23:56.839Z,51.40
2017-08-19T19:26:25.510Z,51.80
2017-08-19T19:28:55.008Z,51.80
2017-08-19T19:31:23.482Z,52.00
2017-08-19T19:33:52.432Z,52.00
2017-08-19T19:36:21.127Z,52.10
2017-08-19T19:38:51.075Z,52.00
2017-08-19T19:41:19.778Z,52.30
2017-08-19T19:43:48.372Z,52.70
2017-08-19T19:46:17.136Z,53.20
2017-08-19T19:48:45.872Z,53.30
2017-08-19T19:51:14.735Z,53.20
2017-08-19T19:53:43.874Z,53.20
2017-08-19T19:56:12.698Z,53.30
2017-08-19T19:58:41.287Z,53.80
2017-08-19T20:01:10.415Z,53.90
2017-08-19T20:03:39.185Z,54.20
2017-08-19T20:06:08.459Z,54.20
2017-08-19T20:08:37.416Z,54.20
2017-08-19T20:11:06.340Z,53.50
2017-08-19T20:13:35.196Z,53.00
2017-08-19T20:16:04.222Z,52.60
2017-08-19T20:18:33.479Z,51.50
2017-08-19T20:21:02.160Z,51.40
2017-08-19T20:23:31.005Z,51.20
2017-08-19T20:25:59.652Z,50.10
2017-08-19T20:28:28.366Z,49.90
2017-08-19T20:30:57.198Z,49.80
2017-08-19T20:33:25.988Z,50.10
2017-08-19T20:35:54.743Z,49.90
2017-08-19T20:38:23.399Z,49.60
2017-08-19T20:40:52.024Z,49.60
2017-08-19T20:43:21.119Z,49.20
2017-08-19T20:45:49.976Z,49.00
2017-08-19T20:48:19.244Z,49.30
2017-08-19T20:50:48.127Z,49.80
2017-08-19T20:53:18.122Z,50.40
2017-08-19T20:55:46.763Z,50.20
2017-08-19T20:58:15.635Z,49.90
2017-08-19T21:00:44.881Z,50.10
2017-08-19T21:03:15.206Z,49.90
2017-08-19T21:05:47.380Z,49.80
2017-08-19T21:08:16.491Z,49.80
2017-08-19T21:10:45.306Z,49.90
2017-08-19T21:13:13.934Z,49.90
2017-08-19T21:15:46.657Z,50.50
2017-08-19T21:18:16.010Z,50.70
2017-08-19T21:20:45.480Z,50.40
2017-08-19T21:23:14.609Z,50.80
2017-08-19T21:25:44.271Z,50.70
2017-08-19T21:28:14.150Z,51.10
2017-08-19T21:30:44.709Z,50.50
2017-08-19T21:33:14.977Z,50.90
2017-08-19T21:35:44.211Z,50.90
2017-08-19T21:38:12.797Z,51.20
2017-08-19T21:40:41.044Z,50.70
2017-08-19T21:43:09.299Z,49.90
2017-08-19T21:45:37.573Z,49.90
2017-08-19T21:48:05.805Z,49.80
2017-08-19T21:50:34.135Z,49.80
2017-08-19T21:53:02.608Z,50.50
2017-08-19T21:55:30.855Z,50.20
2017-08-19T21:57:59.092Z,50.40
2017-08-19T22:00:27.373Z,50.70
2017-08-19T22:02:55.616Z,50.80
2017-08-19T22:05:23.861Z,50.50
2017-08-19T22:07:52.583Z,50.10
2017-08-19T22:10:21.159Z,49.80
2017-08-19T22:12:49.855Z,49.80
2017-08-19T22:15:18.635Z,49.50
2017-08-19T22:17:47.301Z,49.50
2017-08-19T22:20:16.027Z,49.60
2017-08-19T22:22:44.918Z,49.50
2017-08-19T22:25:13.720Z,49.50
2017-08-19T22:27:42.335Z,49.30
2017-08-19T22:30:10.927Z,49.00
2017-08-19T22:32:39.664Z,48.90
2017-08-19T22:35:08.511Z,48.90
2017-08-19T22:37:37.162Z,48.70
2017-08-19T22:40:05.917Z,48.10
2017-08-19T22:42:34.582Z,48.30
2017-08-19T22:45:03.358Z,48.60
2017-08-19T22:47:32.261Z,48.60
2017-08-19T22:50:00.939Z,49.00
2017-08-19T22:52:29.794Z,48.90
2017-08-19T22:54:58.405Z,49.00
2017-08-19T22:57:27.315Z,49.20
2017-08-19T22:59:56.241Z,49.50
2017-08-19T23:02:25.092Z,49.90
2017-08-19T23:04:53.691Z,49.90
2017-08-19T23:07:22.563Z,50.10
2017-08-19T23:09:51.593Z,50.10
2017-08-19T23:12:20.669Z,50.20
2017-08-19T23:14:49.392Z,50.40
2017-08-19T23:17:18.094Z,50.40
2017-08-19T23:19:47.030Z,50.50
2017-08-19T23:22:16.629Z,50.70
2017-08-19T23:24:45.430Z,50.70
2017-08-19T23:27:14.300Z,50.70
2017-08-19T23:29:43.067Z,50.70
2017-08-19T23:32:12.790Z,50.80
2017-08-19T23:34:41.537Z,50.90
2017-08-19T23:37:10.208Z,51.10
2017-08-19T23:39:39.526Z,51.20
2017-08-19T23:42:08.430Z,51.20
2017-08-19T23:44:37.148Z,51.40
2017-08-19T23:47:05.618Z,51.50
2017-08-19T23:49:34.445Z,51.50
2017-08-19T23:52:03.118Z,51.40
2017-08-19T23:54:31.904Z,51.20
2017-08-19T23:57:00.761Z,51.20
2017-08-19T23:59:29.655Z,51.10
